sensor_id;sensor_type;location;lat;lon;timestamp;temperature;humidity
13686;DHT22;6915;48.296;8.874;2023-05-07T00:00:33;11.70;99.90
13686;DHT22;6915;48.296;8.874;2023-05-07T00:03:02;11.70;99.90
13686;DHT22;6915;48.296;8.874;2023-05-07T00:05:30;11.70;99.90
13686;DHT22;6915;48.296;8.874;2023-05-07T00:07:59;11.70;99.90
13686;DHT22;6915;48.296;8.874;2023-05-07T00:10:28;11.70;99.90
13686;DHT22;6915;48.296;8.874;2023-05-07T00:12:58;11.50;99.90
13686;DHT22;6915;48.296;8.874;2023-05-07T00:15:27;11.50;99.90
13686;DHT22;6915;48.296;8.874;2023-05-07T00:17:57;11.50;99.90
13686;DHT22;6915;48.296;8.874;2023-05-07T00:20:26;11.50;99.90
13686;DHT22;6915;48.296;8.874;2023-05-07T00:22:55;11.50;99.90
13686;DHT22;6915;48.296;8.874;2023-05-07T00:25:23;11.50;99.90
13686;DHT22;6915;48.296;8.874;2023-05-07T00:27:52;11.50;99.90
13686;DHT22;6915;48.296;8.874;2023-05-07T00:30:22;11.40;99.90
13686;DHT22;6915;48.296;8.874;2023-05-07T00:32:51;11.20;99.90
13686;DHT22;6915;48.296;8.874;2023-05-07T00:35:19;11.10;99.90
13686;DHT22;6915;48.296;8.874;2023-05-07T00:37:48;11.20;99.90
13686;DHT22;6915;48.296;8.874;2023-05-07T00:40:17;11.20;99.90
13686;DHT22;6915;48.296;8.874;2023-05-07T00:42:45;11.20;99.90
13686;DHT22;6915;48.296;8.874;2023-05-07T00:45:14;11.20;99.90
13686;DHT22;6915;48.296;8.874;2023-05-07T00:47:45;11.30;99.90
13686;DHT22;6915;48.296;8.874;2023-05-07T00:50:14;11.10;99.90
13686;DHT22;6915;48.296;8.874;2023-05-07T00:52:44;11.10;99.90
13686;DHT22;6915;48.296;8.874;2023-05-07T00:55:13;11.20;99.90
13686;DHT22;6915;48.296;8.874;2023-05-07T00:57:42;11.20;99.90
13686;DHT22;6915;48.296;8.874;2023-05-07T01:00:13;11.20;99.90
13686;DHT22;6915;48.296;8.874;2023-05-07T01:02:42;11.10;99.90
13686;DHT22;6915;48.296;8.874;2023-05-07T01:05:14;11.00;99.90
13686;DHT22;6915;48.296;8.874;2023-05-07T01:07:44;11.10;99.90
13686;DHT22;6915;48.296;8.874;2023-05-07T01:10:14;11.20;99.90
13686;DHT22;6915;48.296;8.874;2023-05-07T01:12:43;11.10;99.90
13686;DHT22;6915;48.296;8.874;2023-05-07T01:15:13;11.10;99.90
13686;DHT22;6915;48.296;8.874;2023-05-07T01:17:43;11.10;99.90
13686;DHT22;6915;48.296;8.874;2023-05-07T01:20:13;11.10;99.90
13686;DHT22;6915;48.296;8.874;2023-05-07T01:22:44;11.00;99.90
13686;DHT22;6915;48.296;8.874;2023-05-07T01:25:13;10.90;99.90
13686;DHT22;6915;48.296;8.874;2023-05-07T01:27:43;10.90;99.90
13686;DHT22;6915;48.296;8.874;2023-05-07T01:30:12;10.90;99.90
13686;DHT22;6915;48.296;8.874;2023-05-07T01:32:45;10.90;99.90
13686;DHT22;6915;48.296;8.874;2023-05-07T01:35:20;11.00;99.90
13686;DHT22;6915;48.296;8.874;2023-05-07T01:37:52;10.80;99.90
13686;DHT22;6915;48.296;8.874;2023-05-07T01:40:21;10.70;99.90
13686;DHT22;6915;48.296;8.874;2023-05-07T01:42:50;10.70;99.90
13686;DHT22;6915;48.296;8.874;2023-05-07T01:45:19;10.70;99.90
13686;DHT22;6915;48.296;8.874;2023-05-07T01:47:48;10.70;99.90
13686;DHT22;6915;48.296;8.874;2023-05-07T01:50:18;10.60;99.90
13686;DHT22;6915;48.296;8.874;2023-05-07T01:52:49;10.60;99.90
13686;DHT22;6915;48.296;8.874;2023-05-07T01:55:20;10.70;99.90
13686;DHT22;6915;48.296;8.874;2023-05-07T01:57:48;10.70;99.90
13686;DHT22;6915;48.296;8.874;2023-05-07T02:00:18;10.70;99.90
13686;DHT22;6915;48.296;8.874;2023-05-07T02:02:46;10.70;99.90
13686;DHT22;6915;48.296;8.874;2023-05-07T02:05:15;10.90;99.90
13686;DHT22;6915;48.296;8.874;2023-05-07T02:07:43;10.60;99.90
13686;DHT22;6915;48.296;8.874;2023-05-07T02:10:12;10.60;99.90
13686;DHT22;6915;48.296;8.874;2023-05-07T02:12:42;10.60;99.90
13686;DHT22;6915;48.296;8.874;2023-05-07T02:15:12;10.60;99.90
13686;DHT22;6915;48.296;8.874;2023-05-07T02:17:57;10.60;99.90
13686;DHT22;6915;48.296;8.874;2023-05-07T02:20:27;10.60;99.90
13686;DHT22;6915;48.296;8.874;2023-05-07T02:22:56;10.50;99.90
13686;DHT22;6915;48.296;8.874;2023-05-07T02:25:25;10.50;99.90
13686;DHT22;6915;48.296;8.874;2023-05-07T02:27:55;10.50;99.90
13686;DHT22;6915;48.296;8.874;2023-05-07T02:30:24;10.50;99.90
13686;DHT22;6915;48.296;8.874;2023-05-07T02:32:53;10.40;99.90
13686;DHT22;6915;48.296;8.874;2023-05-07T02:35:22;10.40;99.90
13686;DHT22;6915;48.296;8.874;2023-05-07T02:37:52;10.30;99.90
13686;DHT22;6915;48.296;8.874;2023-05-07T02:40:21;10.20;99.90
13686;DHT22;6915;48.296;8.874;2023-05-07T02:42:49;10.20;99.90
13686;DHT22;6915;48.296;8.874;2023-05-07T02:45:19;10.00;99.90
13686;DHT22;6915;48.296;8.874;2023-05-07T02:47:48;9.90;99.90
13686;DHT22;6915;48.296;8.874;2023-05-07T02:50:17;9.80;99.90
13686;DHT22;6915;48.296;8.874;2023-05-07T02:52:45;9.90;99.90
13686;DHT22;6915;48.296;8.874;2023-05-07T02:55:14;9.90;99.90
13686;DHT22;6915;48.296;8.874;2023-05-07T02:57:43;9.90;99.90
13686;DHT22;6915;48.296;8.874;2023-05-07T03:00:11;9.80;99.90
13686;DHT22;6915;48.296;8.874;2023-05-07T03:07:47;9.70;99.90
13686;DHT22;6915;48.296;8.874;2023-05-07T03:10:15;9.70;99.90
13686;DHT22;6915;48.296;8.874;2023-05-07T03:12:45;9.70;99.90
13686;DHT22;6915;48.296;8.874;2023-05-07T03:15:14;9.70;99.90
13686;DHT22;6915;48.296;8.874;2023-05-07T03:17:43;9.70;99.90
13686;DHT22;6915;48.296;8.874;2023-05-07T03:20:13;9.70;99.90
13686;DHT22;6915;48.296;8.874;2023-05-07T03:22:42;9.60;99.90
13686;DHT22;6915;48.296;8.874;2023-05-07T03:25:12;9.70;99.90
13686;DHT22;6915;48.296;8.874;2023-05-07T03:27:42;9.60;99.90
13686;DHT22;6915;48.296;8.874;2023-05-07T03:30:12;9.60;99.90
13686;DHT22;6915;48.296;8.874;2023-05-07T03:32:41;9.50;99.90
13686;DHT22;6915;48.296;8.874;2023-05-07T03:35:10;9.50;99.90
13686;DHT22;6915;48.296;8.874;2023-05-07T03:37:39;9.40;99.90
13686;DHT22;6915;48.296;8.874;2023-05-07T03:40:09;9.40;99.90
13686;DHT22;6915;48.296;8.874;2023-05-07T03:42:40;9.30;99.90
13686;DHT22;6915;48.296;8.874;2023-05-07T03:45:10;9.30;99.90
13686;DHT22;6915;48.296;8.874;2023-05-07T03:47:39;9.30;99.90
13686;DHT22;6915;48.296;8.874;2023-05-07T03:50:07;9.30;99.90
13686;DHT22;6915;48.296;8.874;2023-05-07T03:52:37;9.30;99.90
13686;DHT22;6915;48.296;8.874;2023-05-07T03:55:07;9.30;99.90
13686;DHT22;6915;48.296;8.874;2023-05-07T03:57:36;9.30;99.90
13686;DHT22;6915;48.296;8.874;2023-05-07T04:00:08;9.30;99.90
13686;DHT22;6915;48.296;8.874;2023-05-07T04:02:36;9.20;99.90
13686;DHT22;6915;48.296;8.874;2023-05-07T04:05:06;9.00;99.90
13686;DHT22;6915;48.296;8.874;2023-05-07T04:07:34;9.10;99.90
13686;DHT22;6915;48.296;8.874;2023-05-07T04:10:03;9.10;99.90
13686;DHT22;6915;48.296;8.874;2023-05-07T04:12:32;9.20;99.90
13686;DHT22;6915;48.296;8.874;2023-05-07T04:15:00;9.30;99.90
13686;DHT22;6915;48.296;8.874;2023-05-07T04:17:31;9.40;99.90
13686;DHT22;6915;48.296;8.874;2023-05-07T04:19:59;9.40;99.90
13686;DHT22;6915;48.296;8.874;2023-05-07T04:22:28;9.50;99.90
13686;DHT22;6915;48.296;8.874;2023-05-07T04:24:56;9.60;99.90
13686;DHT22;6915;48.296;8.874;2023-05-07T04:27:25;9.80;99.90
13686;DHT22;6915;48.296;8.874;2023-05-07T04:29:55;10.20;99.90
13686;DHT22;6915;48.296;8.874;2023-05-07T04:32:24;10.60;99.90
13686;DHT22;6915;48.296;8.874;2023-05-07T04:34:54;10.90;99.90
13686;DHT22;6915;48.296;8.874;2023-05-07T04:37:23;11.10;99.90
13686;DHT22;6915;48.296;8.874;2023-05-07T04:39:52;11.30;99.90
13686;DHT22;6915;48.296;8.874;2023-05-07T04:42:20;11.60;99.90
13686;DHT22;6915;48.296;8.874;2023-05-07T04:44:54;12.10;99.90
13686;DHT22;6915;48.296;8.874;2023-05-07T04:47:22;12.40;99.90
13686;DHT22;6915;48.296;8.874;2023-05-07T04:49:51;12.40;99.90
13686;DHT22;6915;48.296;8.874;2023-05-07T04:52:21;12.70;99.90
13686;DHT22;6915;48.296;8.874;2023-05-07T04:54:50;13.30;99.90
13686;DHT22;6915;48.296;8.874;2023-05-07T04:57:18;13.80;99.90
13686;DHT22;6915;48.296;8.874;2023-05-07T04:59:47;14.30;99.90
13686;DHT22;6915;48.296;8.874;2023-05-07T05:02:16;14.80;99.90
13686;DHT22;6915;48.296;8.874;2023-05-07T05:04:45;15.30;99.90
13686;DHT22;6915;48.296;8.874;2023-05-07T05:07:13;15.80;99.90
13686;DHT22;6915;48.296;8.874;2023-05-07T05:09:44;16.40;99.90
13686;DHT22;6915;48.296;8.874;2023-05-07T05:12:12;16.90;99.90
13686;DHT22;6915;48.296;8.874;2023-05-07T05:14:41;17.00;99.90
13686;DHT22;6915;48.296;8.874;2023-05-07T05:17:10;17.20;99.90
13686;DHT22;6915;48.296;8.874;2023-05-07T05:19:38;17.40;99.90
13686;DHT22;6915;48.296;8.874;2023-05-07T05:22:07;17.50;99.90
13686;DHT22;6915;48.296;8.874;2023-05-07T05:24:35;17.90;99.90
13686;DHT22;6915;48.296;8.874;2023-05-07T05:27:06;17.50;99.90
13686;DHT22;6915;48.296;8.874;2023-05-07T05:29:34;16.70;99.90
13686;DHT22;6915;48.296;8.874;2023-05-07T05:32:03;16.00;99.90
13686;DHT22;6915;48.296;8.874;2023-05-07T05:34:31;15.80;99.90
13686;DHT22;6915;48.296;8.874;2023-05-07T05:37:01;15.80;99.90
13686;DHT22;6915;48.296;8.874;2023-05-07T05:39:29;15.90;99.90
13686;DHT22;6915;48.296;8.874;2023-05-07T05:41:58;16.00;99.90
13686;DHT22;6915;48.296;8.874;2023-05-07T05:44:28;16.20;99.90
13686;DHT22;6915;48.296;8.874;2023-05-07T05:46:57;16.30;99.90
13686;DHT22;6915;48.296;8.874;2023-05-07T05:49:26;16.50;99.90
13686;DHT22;6915;48.296;8.874;2023-05-07T05:51:55;16.90;99.90
13686;DHT22;6915;48.296;8.874;2023-05-07T05:54:24;17.00;99.90
13686;DHT22;6915;48.296;8.874;2023-05-07T05:56:52;17.10;99.90
13686;DHT22;6915;48.296;8.874;2023-05-07T05:59:21;17.20;99.90
13686;DHT22;6915;48.296;8.874;2023-05-07T06:01:52;17.30;99.90
13686;DHT22;6915;48.296;8.874;2023-05-07T06:04:20;17.40;99.90
13686;DHT22;6915;48.296;8.874;2023-05-07T06:06:51;17.60;99.90
13686;DHT22;6915;48.296;8.874;2023-05-07T06:09:19;17.50;99.90
13686;DHT22;6915;48.296;8.874;2023-05-07T06:11:48;17.40;99.90
13686;DHT22;6915;48.296;8.874;2023-05-07T06:14:17;17.30;99.90
13686;DHT22;6915;48.296;8.874;2023-05-07T06:16:46;17.20;99.90
13686;DHT22;6915;48.296;8.874;2023-05-07T06:19:16;17.30;99.90
13686;DHT22;6915;48.296;8.874;2023-05-07T06:21:50;17.40;99.90
13686;DHT22;6915;48.296;8.874;2023-05-07T06:24:18;17.30;99.90
13686;DHT22;6915;48.296;8.874;2023-05-07T06:26:47;17.30;99.90
13686;DHT22;6915;48.296;8.874;2023-05-07T06:29:15;17.20;99.90
13686;DHT22;6915;48.296;8.874;2023-05-07T06:31:44;17.10;99.90
13686;DHT22;6915;48.296;8.874;2023-05-07T06:34:13;17.20;99.90
13686;DHT22;6915;48.296;8.874;2023-05-07T06:36:43;17.10;99.90
13686;DHT22;6915;48.296;8.874;2023-05-07T06:39:12;16.90;99.90
13686;DHT22;6915;48.296;8.874;2023-05-07T06:41:41;16.50;99.90
13686;DHT22;6915;48.296;8.874;2023-05-07T06:44:09;16.20;99.90
13686;DHT22;6915;48.296;8.874;2023-05-07T06:46:38;15.90;99.90
13686;DHT22;6915;48.296;8.874;2023-05-07T06:49:06;15.90;99.90
13686;DHT22;6915;48.296;8.874;2023-05-07T06:51:35;15.70;99.90
13686;DHT22;6915;48.296;8.874;2023-05-07T06:54:06;15.50;99.90
13686;DHT22;6915;48.296;8.874;2023-05-07T06:56:35;15.30;99.90
13686;DHT22;6915;48.296;8.874;2023-05-07T06:59:04;15.20;99.90
13686;DHT22;6915;48.296;8.874;2023-05-07T07:01:32;15.20;99.90
13686;DHT22;6915;48.296;8.874;2023-05-07T07:04:01;15.20;99.90
13686;DHT22;6915;48.296;8.874;2023-05-07T07:06:30;15.20;99.90
13686;DHT22;6915;48.296;8.874;2023-05-07T07:08:59;15.40;99.90
13686;DHT22;6915;48.296;8.874;2023-05-07T07:11:29;15.40;99.90
13686;DHT22;6915;48.296;8.874;2023-05-07T07:13:58;15.70;99.90
13686;DHT22;6915;48.296;8.874;2023-05-07T07:16:27;15.80;99.90
13686;DHT22;6915;48.296;8.874;2023-05-07T07:18:56;16.10;99.90
13686;DHT22;6915;48.296;8.874;2023-05-07T07:21:25;16.20;99.90
13686;DHT22;6915;48.296;8.874;2023-05-07T07:23:53;16.60;99.90
13686;DHT22;6915;48.296;8.874;2023-05-07T07:26:22;17.10;99.90
13686;DHT22;6915;48.296;8.874;2023-05-07T07:28:53;17.30;99.90
13686;DHT22;6915;48.296;8.874;2023-05-07T07:31:21;17.50;99.90
13686;DHT22;6915;48.296;8.874;2023-05-07T07:33:52;17.80;99.90
13686;DHT22;6915;48.296;8.874;2023-05-07T07:36:20;17.90;99.90
13686;DHT22;6915;48.296;8.874;2023-05-07T07:38:49;18.10;99.90
13686;DHT22;6915;48.296;8.874;2023-05-07T07:41:17;18.20;99.90
13686;DHT22;6915;48.296;8.874;2023-05-07T07:43:47;18.70;99.90
13686;DHT22;6915;48.296;8.874;2023-05-07T07:46:17;18.90;99.90
13686;DHT22;6915;48.296;8.874;2023-05-07T07:48:46;19.30;99.90
13686;DHT22;6915;48.296;8.874;2023-05-07T07:51:14;19.30;99.90
13686;DHT22;6915;48.296;8.874;2023-05-07T07:53:43;19.50;99.90
13686;DHT22;6915;48.296;8.874;2023-05-07T07:56:11;19.40;99.90
13686;DHT22;6915;48.296;8.874;2023-05-07T07:58:40;19.40;99.90
13686;DHT22;6915;48.296;8.874;2023-05-07T08:01:09;19.50;99.90
13686;DHT22;6915;48.296;8.874;2023-05-07T08:03:41;19.70;99.90
13686;DHT22;6915;48.296;8.874;2023-05-07T08:06:11;20.00;99.90
13686;DHT22;6915;48.296;8.874;2023-05-07T08:08:39;19.90;99.90
13686;DHT22;6915;48.296;8.874;2023-05-07T08:11:08;19.80;99.90
13686;DHT22;6915;48.296;8.874;2023-05-07T08:13:39;19.90;99.90
13686;DHT22;6915;48.296;8.874;2023-05-07T08:16:08;19.80;99.90
13686;DHT22;6915;48.296;8.874;2023-05-07T08:18:37;19.80;99.90
13686;DHT22;6915;48.296;8.874;2023-05-07T08:21:07;19.90;99.90
13686;DHT22;6915;48.296;8.874;2023-05-07T08:23:36;19.80;99.90
13686;DHT22;6915;48.296;8.874;2023-05-07T08:26:05;20.20;99.90
13686;DHT22;6915;48.296;8.874;2023-05-07T08:28:35;20.20;99.90
13686;DHT22;6915;48.296;8.874;2023-05-07T08:31:04;20.40;99.90
13686;DHT22;6915;48.296;8.874;2023-05-07T08:33:32;20.60;99.90
13686;DHT22;6915;48.296;8.874;2023-05-07T08:36:01;20.60;99.90
13686;DHT22;6915;48.296;8.874;2023-05-07T08:38:31;20.50;99.90
13686;DHT22;6915;48.296;8.874;2023-05-07T08:41:00;20.60;99.90
13686;DHT22;6915;48.296;8.874;2023-05-07T08:43:30;20.80;99.90
13686;DHT22;6915;48.296;8.874;2023-05-07T08:46:02;20.70;99.90
13686;DHT22;6915;48.296;8.874;2023-05-07T08:48:34;20.80;99.90
13686;DHT22;6915;48.296;8.874;2023-05-07T08:51:05;20.90;99.90
13686;DHT22;6915;48.296;8.874;2023-05-07T08:53:38;21.40;99.90
13686;DHT22;6915;48.296;8.874;2023-05-07T08:56:10;21.50;99.90
13686;DHT22;6915;48.296;8.874;2023-05-07T08:58:39;21.50;99.90
13686;DHT22;6915;48.296;8.874;2023-05-07T09:01:09;21.50;99.90
13686;DHT22;6915;48.296;8.874;2023-05-07T09:03:44;21.50;99.90
13686;DHT22;6915;48.296;8.874;2023-05-07T09:06:13;21.40;99.90
13686;DHT22;6915;48.296;8.874;2023-05-07T09:08:48;21.60;99.90
13686;DHT22;6915;48.296;8.874;2023-05-07T09:11:19;21.40;99.90
13686;DHT22;6915;48.296;8.874;2023-05-07T09:13:48;21.70;99.90
13686;DHT22;6915;48.296;8.874;2023-05-07T09:16:18;21.70;99.90
13686;DHT22;6915;48.296;8.874;2023-05-07T09:18:48;21.90;99.90
13686;DHT22;6915;48.296;8.874;2023-05-07T09:21:20;22.30;99.90
13686;DHT22;6915;48.296;8.874;2023-05-07T09:23:52;22.20;99.90
13686;DHT22;6915;48.296;8.874;2023-05-07T09:26:23;22.20;99.90
13686;DHT22;6915;48.296;8.874;2023-05-07T09:28:51;22.10;99.90
13686;DHT22;6915;48.296;8.874;2023-05-07T09:31:20;22.00;99.90
13686;DHT22;6915;48.296;8.874;2023-05-07T09:33:52;22.30;99.90
13686;DHT22;6915;48.296;8.874;2023-05-07T09:36:22;22.00;99.90
13686;DHT22;6915;48.296;8.874;2023-05-07T09:38:52;21.90;99.90
13686;DHT22;6915;48.296;8.874;2023-05-07T09:41:21;22.00;99.90
13686;DHT22;6915;48.296;8.874;2023-05-07T09:43:55;22.10;99.90
13686;DHT22;6915;48.296;8.874;2023-05-07T09:46:28;22.30;99.90
13686;DHT22;6915;48.296;8.874;2023-05-07T09:49:00;22.20;99.90
13686;DHT22;6915;48.296;8.874;2023-05-07T09:51:33;22.50;99.90
13686;DHT22;6915;48.296;8.874;2023-05-07T09:54:04;22.20;99.90
13686;DHT22;6915;48.296;8.874;2023-05-07T09:56:34;22.50;99.90
13686;DHT22;6915;48.296;8.874;2023-05-07T09:59:04;22.40;99.90
13686;DHT22;6915;48.296;8.874;2023-05-07T10:01:35;22.20;99.90
13686;DHT22;6915;48.296;8.874;2023-05-07T10:04:04;22.30;99.90
13686;DHT22;6915;48.296;8.874;2023-05-07T10:06:36;22.20;99.90
13686;DHT22;6915;48.296;8.874;2023-05-07T10:09:07;22.20;99.90
13686;DHT22;6915;48.296;8.874;2023-05-07T10:11:37;22.10;99.90
13686;DHT22;6915;48.296;8.874;2023-05-07T10:14:06;21.60;99.90
13686;DHT22;6915;48.296;8.874;2023-05-07T10:16:36;21.40;99.90
13686;DHT22;6915;48.296;8.874;2023-05-07T10:19:09;21.40;99.90
13686;DHT22;6915;48.296;8.874;2023-05-07T10:21:39;21.60;99.90
13686;DHT22;6915;48.296;8.874;2023-05-07T10:24:12;21.80;99.90
13686;DHT22;6915;48.296;8.874;2023-05-07T10:26:45;21.90;99.90
13686;DHT22;6915;48.296;8.874;2023-05-07T10:29:25;22.20;99.90
13686;DHT22;6915;48.296;8.874;2023-05-07T10:32:03;22.20;99.90
13686;DHT22;6915;48.296;8.874;2023-05-07T10:34:37;22.00;99.90
13686;DHT22;6915;48.296;8.874;2023-05-07T10:37:07;22.10;99.90
13686;DHT22;6915;48.296;8.874;2023-05-07T10:39:39;22.40;99.90
13686;DHT22;6915;48.296;8.874;2023-05-07T10:42:10;22.60;99.90
13686;DHT22;6915;48.296;8.874;2023-05-07T10:44:39;22.50;99.90
13686;DHT22;6915;48.296;8.874;2023-05-07T10:47:09;22.50;99.90
13686;DHT22;6915;48.296;8.874;2023-05-07T10:49:37;22.70;99.90
13686;DHT22;6915;48.296;8.874;2023-05-07T10:52:16;22.70;99.90
13686;DHT22;6915;48.296;8.874;2023-05-07T10:54:47;23.00;99.90
13686;DHT22;6915;48.296;8.874;2023-05-07T10:57:35;22.60;99.90
13686;DHT22;6915;48.296;8.874;2023-05-07T11:00:04;21.90;99.90
13686;DHT22;6915;48.296;8.874;2023-05-07T11:03:07;21.80;99.90
13686;DHT22;6915;48.296;8.874;2023-05-07T11:05:37;22.00;99.90
13686;DHT22;6915;48.296;8.874;2023-05-07T11:08:07;22.30;99.90
13686;DHT22;6915;48.296;8.874;2023-05-07T11:10:54;22.10;99.90
13686;DHT22;6915;48.296;8.874;2023-05-07T11:13:42;22.00;99.90
13686;DHT22;6915;48.296;8.874;2023-05-07T11:16:21;22.20;99.90
13686;DHT22;6915;48.296;8.874;2023-05-07T11:18:52;22.10;99.90
13686;DHT22;6915;48.296;8.874;2023-05-07T11:21:35;21.90;99.90
13686;DHT22;6915;48.296;8.874;2023-05-07T11:24:05;21.70;99.90
13686;DHT22;6915;48.296;8.874;2023-05-07T11:26:44;21.60;99.90
13686;DHT22;6915;48.296;8.874;2023-05-07T11:29:14;21.60;99.90
13686;DHT22;6915;48.296;8.874;2023-05-07T11:31:44;21.50;99.90
13686;DHT22;6915;48.296;8.874;2023-05-07T11:34:17;21.40;99.90
13686;DHT22;6915;48.296;8.874;2023-05-07T11:36:49;21.30;99.90
13686;DHT22;6915;48.296;8.874;2023-05-07T11:39:26;21.20;99.90
13686;DHT22;6915;48.296;8.874;2023-05-07T11:41:57;21.00;99.90
13686;DHT22;6915;48.296;8.874;2023-05-07T11:44:27;20.80;99.90
13686;DHT22;6915;48.296;8.874;2023-05-07T11:47:07;20.60;99.90
13686;DHT22;6915;48.296;8.874;2023-05-07T11:49:36;20.30;99.90
13686;DHT22;6915;48.296;8.874;2023-05-07T11:52:05;20.20;99.90
13686;DHT22;6915;48.296;8.874;2023-05-07T11:54:39;20.10;99.90
13686;DHT22;6915;48.296;8.874;2023-05-07T11:57:16;19.80;99.90
13686;DHT22;6915;48.296;8.874;2023-05-07T11:59:45;19.50;99.90
13686;DHT22;6915;48.296;8.874;2023-05-07T12:02:15;19.20;99.90
13686;DHT22;6915;48.296;8.874;2023-05-07T12:04:44;18.80;99.90
13686;DHT22;6915;48.296;8.874;2023-05-07T12:07:13;18.40;99.90
13686;DHT22;6915;48.296;8.874;2023-05-07T12:09:43;18.00;99.90
13686;DHT22;6915;48.296;8.874;2023-05-07T12:12:13;17.70;99.90
13686;DHT22;6915;48.296;8.874;2023-05-07T12:14:45;17.50;99.90
13686;DHT22;6915;48.296;8.874;2023-05-07T12:22:23;16.90;99.90
13686;DHT22;6915;48.296;8.874;2023-05-07T12:24:58;16.80;99.90
13686;DHT22;6915;48.296;8.874;2023-05-07T12:27:28;16.50;99.90
13686;DHT22;6915;48.296;8.874;2023-05-07T12:29:59;16.30;99.90
13686;DHT22;6915;48.296;8.874;2023-05-07T12:32:28;16.10;99.90
13686;DHT22;6915;48.296;8.874;2023-05-07T12:34:57;16.10;99.90
13686;DHT22;6915;48.296;8.874;2023-05-07T12:37:26;15.90;99.90
13686;DHT22;6915;48.296;8.874;2023-05-07T12:40:09;15.90;99.90
13686;DHT22;6915;48.296;8.874;2023-05-07T12:42:42;15.60;99.90
13686;DHT22;6915;48.296;8.874;2023-05-07T12:45:13;15.30;99.90
13686;DHT22;6915;48.296;8.874;2023-05-07T12:47:45;15.10;99.90
13686;DHT22;6915;48.296;8.874;2023-05-07T12:50:15;14.80;99.90
13686;DHT22;6915;48.296;8.874;2023-05-07T12:52:45;14.80;99.90
13686;DHT22;6915;48.296;8.874;2023-05-07T12:55:16;14.70;99.90
13686;DHT22;6915;48.296;8.874;2023-05-07T12:57:49;14.80;99.90
13686;DHT22;6915;48.296;8.874;2023-05-07T13:00:18;14.40;99.90
13686;DHT22;6915;48.296;8.874;2023-05-07T13:03:00;14.20;99.90
13686;DHT22;6915;48.296;8.874;2023-05-07T13:05:29;14.30;99.90
13686;DHT22;6915;48.296;8.874;2023-05-07T13:07:58;14.20;99.90
13686;DHT22;6915;48.296;8.874;2023-05-07T13:10:27;14.10;99.90
13686;DHT22;6915;48.296;8.874;2023-05-07T13:12:58;14.20;99.90
13686;DHT22;6915;48.296;8.874;2023-05-07T13:15:26;14.00;99.90
13686;DHT22;6915;48.296;8.874;2023-05-07T13:17:55;14.00;99.90
13686;DHT22;6915;48.296;8.874;2023-05-07T13:20:24;14.00;99.90
13686;DHT22;6915;48.296;8.874;2023-05-07T13:22:53;14.10;99.90
13686;DHT22;6915;48.296;8.874;2023-05-07T13:25:21;14.00;99.90
13686;DHT22;6915;48.296;8.874;2023-05-07T13:27:50;14.10;99.90
13686;DHT22;6915;48.296;8.874;2023-05-07T13:30:20;14.20;99.90
13686;DHT22;6915;48.296;8.874;2023-05-07T13:32:49;14.30;99.90
13686;DHT22;6915;48.296;8.874;2023-05-07T13:35:19;14.40;99.90
13686;DHT22;6915;48.296;8.874;2023-05-07T13:48:09;14.20;99.90
13686;DHT22;6915;48.296;8.874;2023-05-07T13:50:37;14.20;99.90
13686;DHT22;6915;48.296;8.874;2023-05-07T13:53:07;14.20;99.90
13686;DHT22;6915;48.296;8.874;2023-05-07T13:55:35;14.30;99.90
13686;DHT22;6915;48.296;8.874;2023-05-07T13:58:04;14.30;99.90
13686;DHT22;6915;48.296;8.874;2023-05-07T14:00:33;14.30;99.90
13686;DHT22;6915;48.296;8.874;2023-05-07T14:03:02;14.50;99.90
13686;DHT22;6915;48.296;8.874;2023-05-07T14:05:33;14.60;99.90
13686;DHT22;6915;48.296;8.874;2023-05-07T14:08:02;14.70;99.90
13686;DHT22;6915;48.296;8.874;2023-05-07T14:10:32;14.80;99.90
13686;DHT22;6915;48.296;8.874;2023-05-07T14:13:02;14.90;99.90
13686;DHT22;6915;48.296;8.874;2023-05-07T14:15:30;15.00;99.90
13686;DHT22;6915;48.296;8.874;2023-05-07T14:18:00;15.10;99.90
13686;DHT22;6915;48.296;8.874;2023-05-07T14:20:28;15.10;99.90
13686;DHT22;6915;48.296;8.874;2023-05-07T14:22:59;15.30;99.90
13686;DHT22;6915;48.296;8.874;2023-05-07T14:25:28;15.20;99.90
13686;DHT22;6915;48.296;8.874;2023-05-07T14:27:57;15.40;99.90
13686;DHT22;6915;48.296;8.874;2023-05-07T14:30:26;15.60;99.90
13686;DHT22;6915;48.296;8.874;2023-05-07T14:32:54;15.90;99.90
13686;DHT22;6915;48.296;8.874;2023-05-07T14:35:23;16.10;99.90
13686;DHT22;6915;48.296;8.874;2023-05-07T14:37:52;16.30;99.90
13686;DHT22;6915;48.296;8.874;2023-05-07T14:40:22;16.50;99.90
13686;DHT22;6915;48.296;8.874;2023-05-07T14:42:50;16.60;99.90
13686;DHT22;6915;48.296;8.874;2023-05-07T14:45:20;16.90;99.90
13686;DHT22;6915;48.296;8.874;2023-05-07T14:47:49;17.00;99.90
13686;DHT22;6915;48.296;8.874;2023-05-07T14:50:17;16.90;99.90
13686;DHT22;6915;48.296;8.874;2023-05-07T14:52:46;16.70;99.90
13686;DHT22;6915;48.296;8.874;2023-05-07T14:55:14;16.60;99.90
13686;DHT22;6915;48.296;8.874;2023-05-07T14:57:44;16.70;99.90
13686;DHT22;6915;48.296;8.874;2023-05-07T15:00:14;16.80;99.90
13686;DHT22;6915;48.296;8.874;2023-05-07T15:02:43;16.70;99.90
13686;DHT22;6915;48.296;8.874;2023-05-07T15:05:12;16.70;99.90
13686;DHT22;6915;48.296;8.874;2023-05-07T15:07:41;16.70;99.90
13686;DHT22;6915;48.296;8.874;2023-05-07T15:10:10;16.60;99.90
13686;DHT22;6915;48.296;8.874;2023-05-07T15:12:39;16.60;99.90
13686;DHT22;6915;48.296;8.874;2023-05-07T15:15:11;16.50;99.90
13686;DHT22;6915;48.296;8.874;2023-05-07T15:17:40;16.50;99.90
13686;DHT22;6915;48.296;8.874;2023-05-07T15:20:10;16.50;99.90
13686;DHT22;6915;48.296;8.874;2023-05-07T15:22:39;16.70;99.90
13686;DHT22;6915;48.296;8.874;2023-05-07T15:25:09;16.70;99.90
13686;DHT22;6915;48.296;8.874;2023-05-07T15:27:38;16.60;99.90
13686;DHT22;6915;48.296;8.874;2023-05-07T15:30:08;16.70;99.90
13686;DHT22;6915;48.296;8.874;2023-05-07T15:32:38;16.80;99.90
13686;DHT22;6915;48.296;8.874;2023-05-07T15:35:08;16.90;99.90
13686;DHT22;6915;48.296;8.874;2023-05-07T15:37:37;16.80;99.90
13686;DHT22;6915;48.296;8.874;2023-05-07T15:40:08;16.80;99.90
13686;DHT22;6915;48.296;8.874;2023-05-07T15:42:37;16.90;99.90
13686;DHT22;6915;48.296;8.874;2023-05-07T15:45:06;16.90;99.90
13686;DHT22;6915;48.296;8.874;2023-05-07T15:47:36;16.90;99.90
13686;DHT22;6915;48.296;8.874;2023-05-07T15:50:07;17.00;99.90
13686;DHT22;6915;48.296;8.874;2023-05-07T15:52:36;17.00;99.90
13686;DHT22;6915;48.296;8.874;2023-05-07T15:55:06;17.00;99.90
13686;DHT22;6915;48.296;8.874;2023-05-07T15:57:35;16.80;99.90
13686;DHT22;6915;48.296;8.874;2023-05-07T16:00:04;16.70;99.90
13686;DHT22;6915;48.296;8.874;2023-05-07T16:02:37;16.60;99.90
13686;DHT22;6915;48.296;8.874;2023-05-07T16:05:06;16.60;99.90
13686;DHT22;6915;48.296;8.874;2023-05-07T16:07:37;16.60;99.90
13686;DHT22;6915;48.296;8.874;2023-05-07T16:10:07;16.70;99.90
13686;DHT22;6915;48.296;8.874;2023-05-07T16:12:36;16.60;99.90
13686;DHT22;6915;48.296;8.874;2023-05-07T16:15:06;16.40;99.90
13686;DHT22;6915;48.296;8.874;2023-05-07T16:17:35;16.40;99.90
13686;DHT22;6915;48.296;8.874;2023-05-07T16:20:06;16.40;99.90
13686;DHT22;6915;48.296;8.874;2023-05-07T16:22:35;16.50;99.90
13686;DHT22;6915;48.296;8.874;2023-05-07T16:25:04;16.60;99.90